首页
METAR-TAF:

METAR-TAF

机场 :

Muskegon County Airport

Muskegon, 密歇根州, 美国

纬度: 43-10-16N, 经度: 086-14-12W, 海拔: 191米

当前天气观测

该预报发布于16分钟前的19:55 UTC
风速8节,风向西
温度 11°C
湿度 50%
气压 1021 hPa
能見度: 16.1公里
少量云层高于25000英尺

METAR: KMKG 021955Z 28008KT 10SM FEW250 11/01 A3014 RMK AO2 SLP211 T01060006

时间: 16:11 (20:11 UTC)

预报

该预报发布于2小时和31分钟前的17:40 UTC
预报有效从02日的 18点(UTC)到 03日的 18点(UTC)
风速7节,风向西
能見度: 10公里
天空无云
从 03日的 0600点(UTC)
风速3节,风向东转东北
能見度: 10公里
散云层高于20000英尺

TAF: KMKG 021740Z 0218/0318 27007KT P6SM SKC FM030600 07003KT P6SM SCT200

超过4000个机场的气象观测和天气预报(METAR&TAF报告)。

可查询的气象台以黄色和红色小点在地图上表示。

将鼠标移到小点上方,可查看气象台名称。

然后点击查看天气观测和预报。

如需切换地图:点击带黑十字的绿色按钮放大地图;点击带横线的绿色按钮缩小地图;或者点击绿色箭头查看邻近地区的地图。


METAR-TAF: